DRZR

Zinder Airport

Zinder, Niger
METAR DRZR 251800Z 10004KT 9999 FEW050 39/16 Q1006
Observed Flight Rules
May-25 @ 18:00 UTC (4 hours ago) Visual Flight Rules
Wind Visibility Clouds
100° at 4 knots 10,000+ meters
  • Few at 5,000' AGL
Temperatures Readings
Current 39°C / 102°F
Dewpoint 16°C / 61°F
Humidity 26%
Altimeter 29.7" Hg
Pressure 1006 hPa
Elevation 453
METAR DRZR 251800Z 10004KT 9999 FEW050 39/16 Q1006
Observed Flight Rules
May-25 @ 18:00 UTC
(4 hours ago)
VFR
Wind Visibility
100° at 4 knots 10,000+ meters
Clouds
  • Few at 5,000' AGL
Temperature Dewpoint
39°C / 102°F 16°C / 61°F
Humidity Altimeter Pressure
26% 29.7" Hg 1006 hPa